SXS2NA LTBJ-LTCC
Flight info
| Callsign | SXS2NA |
|---|---|
| Flight time | 1h 27m |
| Altitude | 35000 |
| Route | KULAR UT54 HAY UW705 GEM UW73 MOVUL |
| Aircraft | B738/M-SDE2E3FGHIRWXY/LB1 |
Departure
| Time | 2026-05-01 12:31 |
|---|---|
| Airport | Adnan Menderes International Airport (LTBJ) |
Arrival
| Time | 2026-05-01 13:59 |
|---|---|
| Airport | Diyarbakır Airport (LTCC) |
| Time | Latitude | Longitude | Altitude | Speed | Heading |
|---|---|---|---|---|---|
| 2026-05-01 11:51 | 38.29662 | 27.14952 | 406 ft | 0 kts | 257° |
| 2026-05-01 12:21 | 38.29664 | 27.14963 | 406 ft | 2 kts | 247° |
| 2026-05-01 12:21 | 38.29671 | 27.14980 | 406 ft | 2 kts | 233° |
| 2026-05-01 12:22 | 38.29681 | 27.14994 | 406 ft | 2 kts | 219° |
| 2026-05-01 12:22 | 38.29689 | 27.15002 | 407 ft | 2 kts | 210° |
| 2026-05-01 12:22 | 38.29708 | 27.15012 | 407 ft | 2 kts | 192° |
| 2026-05-01 12:22 | 38.29723 | 27.15014 | 408 ft | 2 kts | 179° |
| 2026-05-01 12:23 | 38.29738 | 27.15012 | 409 ft | 2 kts | 165° |
| 2026-05-01 12:23 | 38.29743 | 27.15010 | 409 ft | 0 kts | 165° |
| 2026-05-01 12:25 | 38.29725 | 27.15016 | 408 ft | 8 kts | 165° |
| 2026-05-01 12:25 | 38.29547 | 27.15070 | 403 ft | 16 kts | 167° |
| 2026-05-01 12:25 | 38.29427 | 27.15106 | 402 ft | 18 kts | 166° |
| 2026-05-01 12:26 | 38.29308 | 27.15142 | 403 ft | 16 kts | 167° |
| 2026-05-01 12:26 | 38.29098 | 27.15205 | 406 ft | 15 kts | 167° |
| 2026-05-01 12:26 | 38.29013 | 27.15258 | 406 ft | 11 kts | 93° |
| 2026-05-01 12:27 | 38.28955 | 27.15314 | 406 ft | 12 kts | 166° |
| 2026-05-01 12:27 | 38.28763 | 27.15373 | 405 ft | 16 kts | 166° |
| 2026-05-01 12:28 | 38.28512 | 27.15448 | 403 ft | 21 kts | 166° |
| 2026-05-01 12:28 | 38.28358 | 27.15494 | 400 ft | 23 kts | 166° |
| 2026-05-01 12:28 | 38.28012 | 27.15599 | 388 ft | 23 kts | 167° |
| 2026-05-01 12:29 | 38.27850 | 27.15647 | 383 ft | 23 kts | 167° |
| 2026-05-01 12:29 | 38.27757 | 27.15716 | 380 ft | 14 kts | 89° |
| 2026-05-01 12:29 | 38.27793 | 27.15908 | 379 ft | 1 kts | 38° |
| 2026-05-01 12:30 | 38.27819 | 27.15906 | 379 ft | 0 kts | 348° |
| 2026-05-01 12:30 | 38.27824 | 27.15905 | 379 ft | 7 kts | 348° |
| 2026-05-01 12:31 | 38.28096 | 27.15825 | 388 ft | 74 kts | 346° |
| 2026-05-01 12:31 | 38.28831 | 27.15600 | 404 ft | 143 kts | 347° |
| 2026-05-01 12:31 | 38.29963 | 27.15258 | 730 ft | 182 kts | 347° |
| 2026-05-01 12:31 | 38.31180 | 27.14878 | 1778 ft | 184 kts | 348° |
| 2026-05-01 12:32 | 38.32384 | 27.14493 | 2648 ft | 174 kts | 348° |
| 2026-05-01 12:32 | 38.34899 | 27.13849 | 3473 ft | 202 kts | 352° |
| 2026-05-01 12:32 | 38.36351 | 27.13481 | 3935 ft | 222 kts | 350° |
| 2026-05-01 12:33 | 38.37918 | 27.13231 | 4517 ft | 235 kts | 2° |
| 2026-05-01 12:33 | 38.39514 | 27.13774 | 5171 ft | 246 kts | 30° |
| 2026-05-01 12:33 | 38.40823 | 27.15307 | 5754 ft | 264 kts | 51° |
| 2026-05-01 12:33 | 38.41886 | 27.17229 | 6460 ft | 272 kts | 54° |
| 2026-05-01 12:34 | 38.42976 | 27.19255 | 7246 ft | 278 kts | 53° |
| 2026-05-01 12:34 | 38.44068 | 27.21308 | 7786 ft | 283 kts | 57° |
| 2026-05-01 12:34 | 38.44912 | 27.23636 | 8185 ft | 296 kts | 71° |
| 2026-05-01 12:34 | 38.45400 | 27.26113 | 9097 ft | 295 kts | 76° |
| 2026-05-01 12:35 | 38.45824 | 27.28722 | 9839 ft | 301 kts | 77° |
| 2026-05-01 12:35 | 38.46251 | 27.31324 | 10482 ft | 310 kts | 76° |
| 2026-05-01 12:35 | 38.46735 | 27.34114 | 10933 ft | 327 kts | 76° |
| 2026-05-01 12:35 | 38.47178 | 27.36991 | 11388 ft | 342 kts | 79° |
| 2026-05-01 12:36 | 38.47550 | 27.40050 | 11729 ft | 360 kts | 81° |
| 2026-05-01 12:36 | 38.47883 | 27.43287 | 12254 ft | 372 kts | 82° |
| 2026-05-01 12:36 | 38.48205 | 27.46596 | 12892 ft | 380 kts | 82° |
| 2026-05-01 12:36 | 38.48537 | 27.49980 | 13559 ft | 387 kts | 81° |
| 2026-05-01 12:37 | 38.48895 | 27.53370 | 14254 ft | 391 kts | 80° |
| 2026-05-01 12:37 | 38.49336 | 27.56807 | 14948 ft | 396 kts | 79° |
| 2026-05-01 12:37 | 38.49826 | 27.60253 | 15420 ft | 402 kts | 78° |
| 2026-05-01 12:37 | 38.50343 | 27.63774 | 15509 ft | 406 kts | 78° |
| 2026-05-01 12:38 | 38.50862 | 27.67316 | 15524 ft | 401 kts | 79° |
| 2026-05-01 12:38 | 38.51368 | 27.70816 | 15526 ft | 402 kts | 79° |
| 2026-05-01 12:38 | 38.51867 | 27.74333 | 15506 ft | 402 kts | 79° |
| 2026-05-01 12:38 | 38.52352 | 27.77794 | 15521 ft | 402 kts | 79° |
| 2026-05-01 12:39 | 38.52840 | 27.81311 | 15528 ft | 401 kts | 79° |
| 2026-05-01 12:39 | 38.53326 | 27.84837 | 15700 ft | 412 kts | 79° |
| 2026-05-01 12:39 | 38.53819 | 27.88423 | 16556 ft | 410 kts | 79° |
| 2026-05-01 12:39 | 38.54311 | 27.92015 | 17202 ft | 415 kts | 80° |
| 2026-05-01 12:40 | 38.54809 | 27.95670 | 17824 ft | 419 kts | 79° |
| 2026-05-01 12:40 | 38.55306 | 27.99344 | 18483 ft | 423 kts | 80° |
| 2026-05-01 12:40 | 38.55810 | 28.03059 | 19092 ft | 427 kts | 80° |
| 2026-05-01 12:40 | 38.56317 | 28.06797 | 19659 ft | 432 kts | 80° |
| 2026-05-01 12:41 | 38.56831 | 28.10602 | 20187 ft | 437 kts | 80° |
| 2026-05-01 12:41 | 38.57350 | 28.14463 | 20714 ft | 443 kts | 80° |
| 2026-05-01 12:41 | 38.57870 | 28.18335 | 21305 ft | 446 kts | 80° |
| 2026-05-01 12:41 | 38.58361 | 28.22234 | 21834 ft | 450 kts | 83° |
| 2026-05-01 12:42 | 38.58651 | 28.26226 | 22365 ft | 454 kts | 87° |
| 2026-05-01 12:42 | 38.58754 | 28.30270 | 22842 ft | 459 kts | 90° |
| 2026-05-01 12:42 | 38.58749 | 28.34348 | 23371 ft | 462 kts | 92° |
| 2026-05-01 12:42 | 38.58693 | 28.38436 | 23834 ft | 467 kts | 92° |
| 2026-05-01 12:43 | 38.58614 | 28.42578 | 24317 ft | 471 kts | 92° |
| 2026-05-01 12:43 | 38.58530 | 28.46778 | 24797 ft | 474 kts | 92° |
| 2026-05-01 12:43 | 38.58448 | 28.50979 | 25225 ft | 479 kts | 92° |
| 2026-05-01 12:43 | 38.58369 | 28.55249 | 25681 ft | 482 kts | 92° |
| 2026-05-01 12:44 | 38.58303 | 28.59540 | 26106 ft | 486 kts | 91° |
| 2026-05-01 12:44 | 38.58330 | 28.63877 | 26554 ft | 490 kts | 88° |
| 2026-05-01 12:44 | 38.58940 | 28.72592 | 27316 ft | 498 kts | 83° |
| 2026-05-01 12:45 | 38.59898 | 28.81433 | 28075 ft | 505 kts | 81° |
| 2026-05-01 12:45 | 38.60401 | 28.85849 | 28455 ft | 509 kts | 81° |
| 2026-05-01 12:45 | 38.60902 | 28.90318 | 28810 ft | 512 kts | 82° |
| 2026-05-01 12:46 | 38.61396 | 28.94841 | 29195 ft | 515 kts | 82° |
| 2026-05-01 12:46 | 38.61877 | 28.99375 | 29598 ft | 517 kts | 82° |
| 2026-05-01 12:46 | 38.62346 | 29.03907 | 29933 ft | 520 kts | 82° |
| 2026-05-01 12:46 | 38.62814 | 29.08528 | 30236 ft | 524 kts | 82° |
| 2026-05-01 12:47 | 38.63272 | 29.13106 | 30565 ft | 527 kts | 82° |
| 2026-05-01 12:47 | 38.63737 | 29.17810 | 30885 ft | 529 kts | 82° |
| 2026-05-01 12:47 | 38.64193 | 29.22461 | 31142 ft | 532 kts | 82° |
| 2026-05-01 12:47 | 38.64651 | 29.27150 | 31566 ft | 531 kts | 82° |
| 2026-05-01 12:48 | 38.65105 | 29.31826 | 32027 ft | 528 kts | 82° |
| 2026-05-01 12:48 | 38.65555 | 29.36470 | 32434 ft | 528 kts | 82° |
| 2026-05-01 12:48 | 38.66005 | 29.41127 | 32764 ft | 528 kts | 82° |
| 2026-05-01 12:48 | 38.66454 | 29.45787 | 33072 ft | 529 kts | 82° |
| 2026-05-01 12:49 | 38.66920 | 29.50437 | 33426 ft | 528 kts | 81° |
| 2026-05-01 12:49 | 38.67450 | 29.55036 | 33680 ft | 530 kts | 80° |
| 2026-05-01 12:49 | 38.68044 | 29.59728 | 33903 ft | 532 kts | 79° |
| 2026-05-01 12:49 | 38.68657 | 29.64366 | 34237 ft | 531 kts | 79° |
| 2026-05-01 12:50 | 38.69273 | 29.68989 | 34630 ft | 527 kts | 79° |
| 2026-05-01 12:50 | 38.69883 | 29.73585 | 34973 ft | 524 kts | 80° |
| 2026-05-01 12:50 | 38.71080 | 29.82782 | 35015 ft | 523 kts | 80° |
| 2026-05-01 12:51 | 38.72236 | 29.91898 | 35009 ft | 520 kts | 80° |
| 2026-05-01 12:52 | 38.73953 | 30.05586 | 34986 ft | 518 kts | 80° |
| 2026-05-01 12:52 | 38.75759 | 30.19142 | 35009 ft | 518 kts | 79° |
| 2026-05-01 12:53 | 38.77576 | 30.32766 | 35005 ft | 518 kts | 79° |
| 2026-05-01 12:54 | 38.78770 | 30.41869 | 35009 ft | 516 kts | 80° |
| 2026-05-01 12:54 | 38.80866 | 30.55274 | 35001 ft | 514 kts | 72° |
| 2026-05-01 12:55 | 38.84636 | 30.68133 | 35011 ft | 511 kts | 65° |
| 2026-05-01 12:56 | 38.87500 | 30.76454 | 34996 ft | 512 kts | 64° |
| 2026-05-01 12:56 | 38.90358 | 30.84744 | 35021 ft | 511 kts | 65° |
| 2026-05-01 12:57 | 38.93175 | 30.93087 | 34998 ft | 508 kts | 65° |
| 2026-05-01 12:57 | 38.97339 | 31.05659 | 35004 ft | 509 kts | 65° |
| 2026-05-01 12:58 | 39.00077 | 31.14004 | 34998 ft | 509 kts | 66° |
| 2026-05-01 12:59 | 39.04153 | 31.26553 | 34995 ft | 506 kts | 66° |
| 2026-05-01 12:59 | 39.08226 | 31.39044 | 34992 ft | 507 kts | 66° |
| 2026-05-01 13:00 | 39.12289 | 31.51562 | 34993 ft | 507 kts | 66° |
| 2026-05-01 13:01 | 39.16322 | 31.64061 | 34988 ft | 505 kts | 66° |
| 2026-05-01 13:02 | 39.20352 | 31.76614 | 34970 ft | 506 kts | 67° |
| 2026-05-01 13:07 | 39.43062 | 32.65078 | 34953 ft | 490 kts | 98° |
| 2026-05-01 13:07 | 39.42770 | 32.69473 | 34953 ft | 490 kts | 98° |
| 2026-05-01 13:08 | 39.42135 | 32.78169 | 34949 ft | 487 kts | 98° |
| 2026-05-01 13:08 | 39.41512 | 32.86851 | 34947 ft | 485 kts | 98° |
| 2026-05-01 13:09 | 39.40895 | 32.95512 | 34944 ft | 485 kts | 98° |
| 2026-05-01 13:09 | 39.40334 | 33.04126 | 34945 ft | 485 kts | 97° |
| 2026-05-01 13:10 | 39.39775 | 33.12805 | 34944 ft | 483 kts | 97° |
| 2026-05-01 13:10 | 39.39217 | 33.21400 | 34940 ft | 484 kts | 97° |
| 2026-05-01 13:11 | 39.38643 | 33.30079 | 34939 ft | 484 kts | 97° |
| 2026-05-01 13:11 | 39.38057 | 33.38727 | 34940 ft | 484 kts | 98° |
| 2026-05-01 13:12 | 39.37394 | 33.47316 | 34935 ft | 484 kts | 98° |
| 2026-05-01 13:12 | 39.36683 | 33.55948 | 34928 ft | 482 kts | 98° |
| 2026-05-01 13:13 | 39.35964 | 33.64543 | 34930 ft | 484 kts | 98° |
| 2026-05-01 13:13 | 39.35242 | 33.73186 | 34922 ft | 486 kts | 99° |
| 2026-05-01 13:14 | 39.34519 | 33.81838 | 34921 ft | 486 kts | 99° |
| 2026-05-01 13:14 | 39.33794 | 33.90478 | 34924 ft | 486 kts | 99° |
| 2026-05-01 13:15 | 39.33070 | 33.99088 | 34920 ft | 486 kts | 99° |
| 2026-05-01 13:15 | 39.32375 | 34.07752 | 34923 ft | 484 kts | 99° |
| 2026-05-01 13:16 | 39.31705 | 34.16383 | 34934 ft | 488 kts | 98° |
| 2026-05-01 13:16 | 39.31024 | 34.25109 | 34941 ft | 485 kts | 98° |
| 2026-05-01 13:17 | 39.29637 | 34.42384 | 34940 ft | 487 kts | 98° |
| 2026-05-01 13:18 | 39.28576 | 34.55339 | 34935 ft | 485 kts | 98° |
| 2026-05-01 13:18 | 39.27861 | 34.63960 | 34932 ft | 484 kts | 98° |
| 2026-05-01 13:19 | 39.27143 | 34.72525 | 34933 ft | 483 kts | 99° |
| 2026-05-01 13:20 | 39.26051 | 34.85402 | 34927 ft | 482 kts | 99° |
| 2026-05-01 13:20 | 39.25309 | 34.94049 | 34927 ft | 484 kts | 99° |
| 2026-05-01 13:21 | 39.24199 | 35.06884 | 34932 ft | 484 kts | 99° |
| 2026-05-01 13:21 | 39.23449 | 35.15482 | 34942 ft | 483 kts | 99° |
| 2026-05-01 13:22 | 39.22687 | 35.24117 | 34926 ft | 483 kts | 99° |
| 2026-05-01 13:22 | 39.21925 | 35.32684 | 34931 ft | 483 kts | 99° |
| 2026-05-01 13:23 | 39.21150 | 35.41260 | 34931 ft | 483 kts | 99° |
| 2026-05-01 13:23 | 39.20368 | 35.49863 | 34944 ft | 482 kts | 99° |
| 2026-05-01 13:24 | 39.19586 | 35.58375 | 34963 ft | 483 kts | 99° |
| 2026-05-01 13:25 | 39.18386 | 35.71301 | 34963 ft | 483 kts | 100° |
| 2026-05-01 13:25 | 39.17584 | 35.79829 | 34976 ft | 484 kts | 100° |
| 2026-05-01 13:26 | 39.16769 | 35.88425 | 34966 ft | 483 kts | 100° |
| 2026-05-01 13:26 | 39.15939 | 35.96963 | 34969 ft | 483 kts | 101° |
| 2026-05-01 13:27 | 39.14568 | 36.05373 | 34956 ft | 476 kts | 111° |
| 2026-05-01 13:27 | 39.11021 | 36.17210 | 34971 ft | 473 kts | 117° |
| 2026-05-01 13:28 | 39.07121 | 36.28830 | 34995 ft | 471 kts | 117° |
| 2026-05-01 13:29 | 39.01992 | 36.44363 | 35005 ft | 474 kts | 116° |
| 2026-05-01 13:31 | 38.94378 | 36.67658 | 35023 ft | 471 kts | 117° |
| 2026-05-01 13:32 | 38.88036 | 36.86955 | 35025 ft | 470 kts | 117° |
| 2026-05-01 13:33 | 38.81660 | 37.06213 | 35038 ft | 471 kts | 117° |
| 2026-05-01 13:34 | 38.76537 | 37.21611 | 35037 ft | 470 kts | 116° |
| 2026-05-01 13:35 | 38.72686 | 37.33160 | 35038 ft | 469 kts | 116° |
| 2026-05-01 13:36 | 38.68835 | 37.44666 | 35033 ft | 471 kts | 116° |
| 2026-05-01 13:36 | 38.64948 | 37.56226 | 35033 ft | 470 kts | 116° |
| 2026-05-01 13:37 | 38.62786 | 37.62637 | 35027 ft | 471 kts | 116° |
| 2026-05-01 13:37 | 38.59771 | 37.71543 | 35022 ft | 471 kts | 117° |
| 2026-05-01 13:38 | 38.55853 | 37.83079 | 35003 ft | 471 kts | 117° |
| 2026-05-01 13:39 | 38.53265 | 37.90678 | 34983 ft | 470 kts | 117° |
| 2026-05-01 13:39 | 38.50640 | 37.98371 | 34957 ft | 470 kts | 116° |
| 2026-05-01 13:40 | 38.48031 | 38.05997 | 34951 ft | 468 kts | 117° |
| 2026-05-01 13:40 | 38.45449 | 38.13616 | 34953 ft | 469 kts | 115° |
| 2026-05-01 13:41 | 38.43211 | 38.21432 | 34954 ft | 472 kts | 111° |
| 2026-05-01 13:41 | 38.41129 | 38.29365 | 34955 ft | 471 kts | 111° |
| 2026-05-01 13:41 | 38.40094 | 38.33308 | 34640 ft | 469 kts | 111° |
| 2026-05-01 13:42 | 38.39069 | 38.37173 | 34291 ft | 462 kts | 111° |
| 2026-05-01 13:42 | 38.38037 | 38.41021 | 33732 ft | 461 kts | 112° |
| 2026-05-01 13:42 | 38.36994 | 38.44867 | 32856 ft | 465 kts | 112° |
| 2026-05-01 13:42 | 38.35932 | 38.48747 | 32038 ft | 467 kts | 112° |
| 2026-05-01 13:43 | 38.34861 | 38.52634 | 31220 ft | 469 kts | 111° |
| 2026-05-01 13:43 | 38.33778 | 38.56552 | 30378 ft | 471 kts | 111° |
| 2026-05-01 13:43 | 38.32684 | 38.60502 | 29514 ft | 474 kts | 111° |
| 2026-05-01 13:43 | 38.31596 | 38.64421 | 28617 ft | 476 kts | 111° |
| 2026-05-01 13:44 | 38.30490 | 38.68401 | 27675 ft | 479 kts | 112° |
| 2026-05-01 13:44 | 38.29377 | 38.72402 | 26743 ft | 481 kts | 112° |
| 2026-05-01 13:44 | 38.28272 | 38.76371 | 26118 ft | 476 kts | 112° |
| 2026-05-01 13:44 | 38.27166 | 38.80345 | 25447 ft | 473 kts | 112° |
| 2026-05-01 13:45 | 38.26088 | 38.84226 | 24751 ft | 470 kts | 112° |
| 2026-05-01 13:45 | 38.25004 | 38.88128 | 24036 ft | 467 kts | 112° |
| 2026-05-01 13:45 | 38.23926 | 38.92005 | 23330 ft | 463 kts | 112° |
| 2026-05-01 13:45 | 38.22852 | 38.95866 | 22628 ft | 460 kts | 112° |
| 2026-05-01 13:46 | 38.21801 | 38.99635 | 21933 ft | 457 kts | 112° |
| 2026-05-01 13:46 | 38.20740 | 39.03435 | 21216 ft | 455 kts | 112° |
| 2026-05-01 13:46 | 38.19679 | 39.07225 | 20496 ft | 451 kts | 112° |
| 2026-05-01 13:46 | 38.18648 | 39.10931 | 19763 ft | 439 kts | 112° |
| 2026-05-01 13:47 | 38.17676 | 39.14477 | 19101 ft | 424 kts | 112° |
| 2026-05-01 13:47 | 38.16732 | 39.17942 | 18431 ft | 411 kts | 112° |
| 2026-05-01 13:47 | 38.15808 | 39.21346 | 17784 ft | 398 kts | 112° |
| 2026-05-01 13:47 | 38.14917 | 39.24615 | 17144 ft | 387 kts | 112° |
| 2026-05-01 13:48 | 38.14017 | 39.27850 | 16561 ft | 397 kts | 112° |
| 2026-05-01 13:48 | 38.13094 | 39.31187 | 15839 ft | 406 kts | 111° |
| 2026-05-01 13:48 | 38.12304 | 39.34647 | 15164 ft | 406 kts | 106° |
| 2026-05-01 13:48 | 38.11746 | 39.38123 | 14511 ft | 403 kts | 102° |
| 2026-05-01 13:49 | 38.11327 | 39.41585 | 13853 ft | 400 kts | 100° |
| 2026-05-01 13:49 | 38.10969 | 39.45087 | 13192 ft | 397 kts | 99° |
| 2026-05-01 13:49 | 38.10635 | 39.48510 | 12540 ft | 393 kts | 99° |
| 2026-05-01 13:49 | 38.10292 | 39.51933 | 11887 ft | 390 kts | 99° |
| 2026-05-01 13:50 | 38.09934 | 39.55360 | 11234 ft | 387 kts | 99° |
| 2026-05-01 13:50 | 38.09574 | 39.58685 | 10597 ft | 384 kts | 100° |
| 2026-05-01 13:50 | 38.09203 | 39.62027 | 10155 ft | 372 kts | 100° |
| 2026-05-01 13:50 | 38.08854 | 39.65158 | 9895 ft | 346 kts | 101° |
| 2026-05-01 13:51 | 38.08528 | 39.68062 | 9667 ft | 324 kts | 101° |
| 2026-05-01 13:51 | 38.08215 | 39.70806 | 9446 ft | 314 kts | 101° |
| 2026-05-01 13:51 | 38.07898 | 39.73538 | 9193 ft | 307 kts | 102° |
| 2026-05-01 13:51 | 38.07583 | 39.76159 | 8944 ft | 300 kts | 102° |
| 2026-05-01 13:52 | 38.07271 | 39.78752 | 8695 ft | 294 kts | 102° |
| 2026-05-01 13:52 | 38.06966 | 39.81320 | 8446 ft | 288 kts | 102° |
| 2026-05-01 13:52 | 38.06679 | 39.83784 | 8210 ft | 282 kts | 102° |
| 2026-05-01 13:52 | 38.06398 | 39.86210 | 7964 ft | 276 kts | 102° |
| 2026-05-01 13:53 | 38.06212 | 39.87827 | 7797 ft | 273 kts | 102° |
| 2026-05-01 13:53 | 38.05602 | 39.93299 | 7236 ft | 267 kts | 102° |
| 2026-05-01 13:53 | 38.05340 | 39.95606 | 6994 ft | 262 kts | 102° |
| 2026-05-01 13:54 | 38.05075 | 39.97866 | 6748 ft | 258 kts | 103° |
| 2026-05-01 13:54 | 38.04813 | 40.00106 | 6503 ft | 253 kts | 102° |
| 2026-05-01 13:54 | 38.04557 | 40.02284 | 6261 ft | 249 kts | 103° |
| 2026-05-01 13:54 | 38.04301 | 40.04426 | 6019 ft | 246 kts | 103° |
| 2026-05-01 13:55 | 38.04048 | 40.06569 | 5774 ft | 242 kts | 103° |
| 2026-05-01 13:55 | 38.03804 | 40.08637 | 5547 ft | 237 kts | 102° |
| 2026-05-01 13:55 | 38.03561 | 40.10688 | 5361 ft | 228 kts | 102° |
| 2026-05-01 13:55 | 38.03243 | 40.12575 | 5306 ft | 211 kts | 113° |
| 2026-05-01 13:56 | 38.02485 | 40.14045 | 5164 ft | 194 kts | 143° |
| 2026-05-01 13:56 | 38.01329 | 40.14798 | 4792 ft | 184 kts | 163° |
| 2026-05-01 13:56 | 38.00131 | 40.15259 | 4467 ft | 175 kts | 162° |
| 2026-05-01 13:56 | 37.99018 | 40.15739 | 4213 ft | 164 kts | 161° |
| 2026-05-01 13:57 | 37.97963 | 40.16217 | 3950 ft | 160 kts | 160° |
| 2026-05-01 13:57 | 37.97280 | 40.16531 | 3776 ft | 151 kts | 160° |
| 2026-05-01 13:57 | 37.95979 | 40.17137 | 3499 ft | 149 kts | 156° |
| 2026-05-01 13:57 | 37.95064 | 40.17736 | 3237 ft | 147 kts | 153° |
| 2026-05-01 13:58 | 37.94123 | 40.18262 | 2968 ft | 148 kts | 161° |
| 2026-05-01 13:58 | 37.93135 | 40.18642 | 2749 ft | 148 kts | 163° |
| 2026-05-01 13:58 | 37.92150 | 40.19024 | 2540 ft | 149 kts | 163° |
| 2026-05-01 13:58 | 37.91145 | 40.19415 | 2336 ft | 150 kts | 163° |
| 2026-05-01 13:59 | 37.90180 | 40.19799 | 2244 ft | 125 kts | 164° |
| 2026-05-01 13:59 | 37.89559 | 40.20041 | 2232 ft | 62 kts | 162° |
| 2026-05-01 13:59 | 37.89257 | 40.20160 | 2223 ft | 38 kts | 163° |
| 2026-05-01 13:59 | 37.88989 | 40.20266 | 2219 ft | 40 kts | 163° |
| 2026-05-01 14:00 | 37.88820 | 40.20337 | 2214 ft | 10 kts | 117° |
| 2026-05-01 14:00 | 37.88844 | 40.20451 | 2215 ft | 16 kts | 71° |
| 2026-05-01 14:00 | 37.88885 | 40.20611 | 2212 ft | 19 kts | 72° |
| 2026-05-01 14:00 | 37.88937 | 40.20714 | 2210 ft | 16 kts | 359° |
| 2026-05-01 14:01 | 37.89062 | 40.20678 | 2211 ft | 19 kts | 346° |
| 2026-05-01 14:01 | 37.89200 | 40.20634 | 2211 ft | 21 kts | 348° |
| 2026-05-01 14:01 | 37.89351 | 40.20592 | 2213 ft | 23 kts | 346° |
| 2026-05-01 14:01 | 37.89510 | 40.20544 | 2216 ft | 20 kts | 347° |
| 2026-05-01 14:02 | 37.89635 | 40.20508 | 2219 ft | 18 kts | 346° |
| 2026-05-01 14:02 | 37.89764 | 40.20467 | 2223 ft | 19 kts | 347° |
| 2026-05-01 14:02 | 37.89904 | 40.20426 | 2226 ft | 21 kts | 346° |
| 2026-05-01 14:02 | 37.90050 | 40.20383 | 2230 ft | 22 kts | 346° |
| 2026-05-01 14:03 | 37.90197 | 40.20338 | 2233 ft | 16 kts | 346° |
| 2026-05-01 14:03 | 37.90246 | 40.20303 | 2234 ft | 6 kts | 271° |
| 2026-05-01 14:03 | 37.90230 | 40.20233 | 2235 ft | 9 kts | 251° |
| 2026-05-01 14:03 | 37.90207 | 40.20147 | 2236 ft | 11 kts | 251° |
| 2026-05-01 14:04 | 37.90177 | 40.20029 | 2239 ft | 15 kts | 252° |
| 2026-05-01 14:04 | 37.90140 | 40.19880 | 2242 ft | 19 kts | 252° |
| 2026-05-01 14:04 | 37.90103 | 40.19722 | 2247 ft | 17 kts | 253° |
| 2026-05-01 14:04 | 37.90081 | 40.19633 | 2250 ft | 14 kts | 254° |
| 2026-05-01 14:05 | 37.90158 | 40.19548 | 2254 ft | 12 kts | 343° |
| 2026-05-01 14:05 | 37.90239 | 40.19516 | 2255 ft | 12 kts | 342° |
| 2026-05-01 14:05 | 37.90311 | 40.19479 | 2256 ft | 10 kts | 296° |
| 2026-05-01 14:05 | 37.90299 | 40.19394 | 2257 ft | 9 kts | 251° |
| 2026-05-01 14:06 | 37.90279 | 40.19313 | 2259 ft | 10 kts | 253° |
| 2026-05-01 14:06 | 37.90256 | 40.19221 | 2263 ft | 11 kts | 251° |
| 2026-05-01 14:06 | 37.90228 | 40.19105 | 2263 ft | 16 kts | 254° |
| 2026-05-01 14:06 | 37.90192 | 40.18957 | 2266 ft | 18 kts | 252° |
| 2026-05-01 14:07 | 37.90158 | 40.18815 | 2265 ft | 14 kts | 252° |
| 2026-05-01 14:07 | 37.90146 | 40.18713 | 2265 ft | 9 kts | 259° |
| 2026-05-01 14:07 | 37.90129 | 40.18646 | 2265 ft | 4 kts | 252° |
| 2026-05-01 14:08 | 37.90121 | 40.18614 | 2265 ft | 0 kts | 252° |